createdAt,value
2019-03-18T00:00:21.080Z,72.47
2019-03-18T00:02:50.746Z,72.32
2019-03-18T00:05:20.161Z,72.44
2019-03-18T00:07:49.588Z,72.53
2019-03-18T00:10:20.145Z,72.40
2019-03-18T00:12:51.993Z,72.46
2019-03-18T00:15:20.754Z,72.53
2019-03-18T00:17:50.524Z,72.44
2019-03-18T00:20:19.997Z,72.66
2019-03-18T00:22:50.053Z,72.64
2019-03-18T00:25:19.460Z,72.72
2019-03-18T00:27:48.889Z,72.72
2019-03-18T00:30:20.647Z,72.74
2019-03-18T00:32:50.241Z,72.51
2019-03-18T00:35:19.646Z,72.62
2019-03-18T00:37:49.079Z,72.65
2019-03-18T00:40:19.749Z,72.66
2019-03-18T00:42:50.902Z,72.80
2019-03-18T00:45:20.338Z,72.59
2019-03-18T00:47:49.771Z,72.33
2019-03-18T00:50:22.635Z,72.40
2019-03-18T00:52:50.927Z,72.49
2019-03-18T00:55:22.695Z,72.07
2019-03-18T00:57:53.907Z,71.83
2019-03-18T01:00:23.409Z,71.87
2019-03-18T01:02:52.917Z,71.92
2019-03-18T01:05:22.321Z,71.69
2019-03-18T01:07:51.823Z,71.92
2019-03-18T01:10:21.299Z,71.79
2019-03-18T01:12:50.737Z,72.00
2019-03-18T01:15:27.915Z,72.09
2019-03-18T01:17:51.763Z,72.42
2019-03-18T01:20:21.244Z,72.89
2019-03-18T01:22:50.838Z,72.75
2019-03-18T01:25:20.257Z,72.94
2019-03-18T01:27:49.686Z,73.23
2019-03-18T01:30:19.103Z,73.11
2019-03-18T01:32:50.182Z,72.86
2019-03-18T01:35:20.287Z,73.03
2019-03-18T01:37:49.792Z,72.89
2019-03-18T01:40:19.639Z,72.91
2019-03-18T01:42:51.989Z,72.69
2019-03-18T01:45:21.419Z,72.92
2019-03-18T01:47:50.819Z,72.94
2019-03-18T01:50:20.256Z,73.14
2019-03-18T01:52:50.104Z,73.13
2019-03-18T01:55:19.540Z,73.17
2019-03-18T01:57:48.950Z,73.24
2019-03-18T02:00:18.397Z,73.32
2019-03-18T02:02:47.875Z,73.55
2019-03-18T02:05:17.306Z,73.20
2019-03-18T02:07:46.782Z,73.24
2019-03-18T02:10:16.854Z,73.44
2019-03-18T02:12:46.330Z,73.69
2019-03-18T02:15:16.055Z,73.71
2019-03-18T02:17:48.230Z,73.84
2019-03-18T02:20:19.601Z,73.76
2019-03-18T02:22:52.057Z,73.50
2019-03-18T02:25:24.605Z,73.74
2019-03-18T02:27:56.724Z,73.62
2019-03-18T02:30:26.205Z,73.67
2019-03-18T02:32:55.672Z,73.75
2019-03-18T02:35:25.069Z,73.95
2019-03-18T02:37:54.474Z,74.17
2019-03-18T02:40:23.914Z,74.50
2019-03-18T02:42:53.383Z,74.65
2019-03-18T02:45:24.573Z,74.37
2019-03-18T02:47:53.977Z,74.04
2019-03-18T02:50:23.905Z,74.07
2019-03-18T02:52:53.432Z,73.98
2019-03-18T02:55:22.866Z,74.13
2019-03-18T02:57:52.302Z,74.61
2019-03-18T03:00:21.711Z,75.35
2019-03-18T03:02:51.624Z,75.70
2019-03-18T03:05:21.173Z,75.38
2019-03-18T03:07:52.406Z,75.56
2019-03-18T03:10:21.822Z,75.29
2019-03-18T03:12:51.660Z,75.50
2019-03-18T03:15:21.137Z,75.13
2019-03-18T03:17:50.634Z,75.33
2019-03-18T03:20:20.040Z,75.47
2019-03-18T03:22:49.473Z,75.29
2019-03-18T03:25:19.436Z,75.27
2019-03-18T03:27:48.871Z,75.29
2019-03-18T03:30:18.649Z,75.51
2019-03-18T03:32:48.112Z,75.32
2019-03-18T03:35:17.559Z,75.37
2019-03-18T03:37:46.959Z,75.12
2019-03-18T03:40:16.486Z,74.96
2019-03-18T03:42:45.891Z,74.74
2019-03-18T03:45:15.761Z,74.58
2019-03-18T03:47:45.768Z,74.61
2019-03-18T03:50:16.159Z,74.60
2019-03-18T03:52:45.632Z,74.76
2019-03-18T03:55:15.191Z,74.54
2019-03-18T03:57:44.694Z,74.75
2019-03-18T04:00:15.465Z,74.72
2019-03-18T04:02:45.029Z,74.72
2019-03-18T04:05:14.620Z,75.07
2019-03-18T04:07:44.224Z,75.04
2019-03-18T04:10:14.782Z,75.32
2019-03-18T04:12:44.291Z,75.39
2019-03-18T04:15:14.705Z,75.53
2019-03-18T04:17:44.312Z,75.57
2019-03-18T04:20:15.902Z,75.83
2019-03-18T04:22:45.491Z,75.62
2019-03-18T04:25:15.051Z,75.68
2019-03-18T04:27:44.494Z,75.71
2019-03-18T04:30:15.244Z,75.71
2019-03-18T04:32:44.750Z,75.66
2019-03-18T04:35:15.765Z,75.37
2019-03-18T04:37:45.218Z,75.60
2019-03-18T04:40:14.705Z,75.34
2019-03-18T04:42:45.653Z,75.74
2019-03-18T04:45:15.067Z,75.76
2019-03-18T04:47:44.590Z,76.29
2019-03-18T04:50:14.243Z,76.62
2019-03-18T04:52:45.421Z,76.49
2019-03-18T04:55:16.743Z,76.43
2019-03-18T04:57:46.271Z,76.57
2019-03-18T05:00:15.872Z,76.88
2019-03-18T05:02:46.355Z,76.60
2019-03-18T05:05:15.772Z,76.70
2019-03-18T05:07:45.251Z,76.35
2019-03-18T05:10:14.954Z,76.18
2019-03-18T05:12:44.399Z,76.25
2019-03-18T05:15:13.879Z,76.09
2019-03-18T05:17:45.028Z,76.38
2019-03-18T05:20:14.505Z,76.65
2019-03-18T05:22:43.930Z,76.53
2019-03-18T05:25:13.430Z,76.82
2019-03-18T05:27:45.359Z,76.99
2019-03-18T05:30:15.314Z,77.12
2019-03-18T05:32:44.742Z,77.39
2019-03-18T05:35:14.336Z,77.63
2019-03-18T05:37:43.757Z,77.62
2019-03-18T05:40:13.263Z,77.66
2019-03-18T05:42:42.677Z,77.97
2019-03-18T05:45:12.257Z,78.00
2019-03-18T05:47:42.772Z,78.32
2019-03-18T05:50:13.254Z,78.38
2019-03-18T05:52:42.683Z,78.75
2019-03-18T05:55:12.272Z,79.02
2019-03-18T05:57:41.684Z,78.77
2019-03-18T06:00:13.341Z,78.49
2019-03-18T06:02:42.813Z,78.67
2019-03-18T06:05:15.461Z,78.56
2019-03-18T06:07:47.778Z,78.68
2019-03-18T06:10:17.220Z,78.75
2019-03-18T06:12:46.749Z,78.68
2019-03-18T06:15:16.150Z,78.65
2019-03-18T06:17:52.316Z,79.30
2019-03-18T06:20:16.844Z,80.04
2019-03-18T06:22:46.295Z,80.24
2019-03-18T06:25:15.722Z,80.71
2019-03-18T06:27:45.144Z,81.46
2019-03-18T06:30:15.630Z,81.99
2019-03-18T06:32:45.068Z,82.30
2019-03-18T06:35:14.524Z,83.09
2019-03-18T06:37:43.963Z,83.11
2019-03-18T06:40:16.488Z,83.09
2019-03-18T06:42:45.949Z,83.04
2019-03-18T06:45:15.376Z,82.68
2019-03-18T06:47:44.806Z,82.23
2019-03-18T06:50:14.304Z,83.17
2019-03-18T06:52:43.832Z,83.59
2019-03-18T06:55:13.419Z,84.29
2019-03-18T06:57:42.995Z,84.89
2019-03-18T07:00:15.005Z,84.93
2019-03-18T07:02:44.501Z,84.69
2019-03-18T07:05:14.277Z,84.96
2019-03-18T07:07:43.701Z,84.46
2019-03-18T07:10:14.080Z,84.72
2019-03-18T07:12:43.599Z,83.75
2019-03-18T07:15:13.341Z,83.46
2019-03-18T07:17:42.787Z,82.24
2019-03-18T07:20:14.122Z,82.69
2019-03-18T07:22:43.741Z,81.77
2019-03-18T07:25:13.223Z,81.71
2019-03-18T07:27:43.578Z,81.70
2019-03-18T07:30:14.904Z,81.36
2019-03-18T07:32:44.344Z,80.98
2019-03-18T07:35:13.906Z,80.78
2019-03-18T07:37:43.337Z,80.17
2019-03-18T07:40:14.103Z,79.71
2019-03-18T07:42:43.593Z,79.60
2019-03-18T07:45:15.838Z,80.12
2019-03-18T07:47:45.745Z,79.88
2019-03-18T07:50:15.838Z,79.84
2019-03-18T07:52:45.390Z,77.49
2019-03-18T07:55:15.797Z,77.88
2019-03-18T07:57:45.582Z,76.95
2019-03-18T08:00:15.984Z,76.52
2019-03-18T08:02:45.452Z,76.31
2019-03-18T08:05:14.889Z,76.76
2019-03-18T08:07:44.303Z,76.13
2019-03-18T08:10:14.379Z,76.81
2019-03-18T08:12:43.800Z,76.76
2019-03-18T08:15:13.887Z,76.12
2019-03-18T08:17:43.477Z,75.97
2019-03-18T08:20:13.583Z,76.47
2019-03-18T08:22:43.066Z,77.16
2019-03-18T08:25:12.645Z,77.46
2019-03-18T08:27:42.167Z,76.90
2019-03-18T08:30:15.856Z,75.78
2019-03-18T08:32:45.297Z,75.80
2019-03-18T08:35:14.822Z,75.98
2019-03-18T08:37:44.299Z,75.44
2019-03-18T08:40:13.778Z,75.15
2019-03-18T08:42:43.232Z,75.60
2019-03-18T08:45:13.719Z,75.82
2019-03-18T08:47:43.124Z,76.20
2019-03-18T08:50:13.099Z,75.98
2019-03-18T08:52:42.496Z,76.10
2019-03-18T08:55:12.298Z,76.02
2019-03-18T08:57:41.729Z,76.11
2019-03-18T09:00:15.354Z,76.45
2019-03-18T09:02:44.765Z,77.04
2019-03-18T09:05:14.542Z,76.56
2019-03-18T09:07:44.103Z,75.90
2019-03-18T09:10:15.414Z,76.66
2019-03-18T09:12:44.924Z,77.35
2019-03-18T09:15:14.679Z,78.80
2019-03-18T09:17:44.260Z,79.53
2019-03-18T09:20:16.043Z,79.57
2019-03-18T09:22:45.468Z,79.20
2019-03-18T09:25:14.911Z,78.28
2019-03-18T09:27:45.382Z,76.84
2019-03-18T09:30:18.938Z,75.44
2019-03-18T09:32:48.388Z,74.29
2019-03-18T09:35:17.867Z,72.99
2019-03-18T09:37:47.323Z,72.93
2019-03-18T09:40:17.683Z,72.13
2019-03-18T09:42:47.287Z,71.26
2019-03-18T09:45:18.427Z,70.61
2019-03-18T09:47:47.923Z,71.09
2019-03-18T09:50:17.573Z,71.63
2019-03-18T09:52:47.060Z,73.57
2019-03-18T09:55:16.519Z,75.97
2019-03-18T09:57:45.919Z,77.21
2019-03-18T10:00:16.944Z,79.01
2019-03-18T10:02:46.417Z,79.75
2019-03-18T10:05:15.927Z,77.06
2019-03-18T10:07:46.417Z,76.83
2019-03-18T10:10:15.992Z,74.34
2019-03-18T10:12:45.426Z,75.46
2019-03-18T10:15:16.178Z,77.25
2019-03-18T10:17:45.660Z,77.22
2019-03-18T10:20:15.261Z,76.67
2019-03-18T10:22:45.839Z,78.07
2019-03-18T10:25:15.252Z,79.52
2019-03-18T10:27:44.696Z,79.02
2019-03-18T10:30:17.182Z,77.48
2019-03-18T10:32:46.580Z,77.88
2019-03-18T10:35:16.081Z,80.18
2019-03-18T10:37:45.571Z,78.91
2019-03-18T10:40:15.263Z,79.17
2019-03-18T10:42:45.934Z,77.27
2019-03-18T10:45:15.525Z,76.14
2019-03-18T10:47:45.020Z,75.62
2019-03-18T10:50:18.042Z,75.09
2019-03-18T10:52:47.622Z,74.69
2019-03-18T10:55:17.045Z,75.84
2019-03-18T10:57:46.548Z,77.21
2019-03-18T11:00:17.244Z,78.76
2019-03-18T11:02:46.733Z,79.23
2019-03-18T11:05:16.219Z,78.91
2019-03-18T11:07:45.730Z,79.21
2019-03-18T11:10:16.970Z,79.50
2019-03-18T11:12:50.707Z,80.26
2019-03-18T11:15:21.482Z,80.53
2019-03-18T11:17:51.056Z,80.11
2019-03-18T11:20:20.704Z,80.33
2019-03-18T11:22:50.136Z,79.33
2019-03-18T11:25:19.701Z,78.05
2019-03-18T11:27:49.144Z,78.33
2019-03-18T11:30:19.667Z,75.77
2019-03-18T11:32:49.178Z,75.22
2019-03-18T11:35:19.738Z,74.91
2019-03-18T11:37:49.162Z,76.35
2019-03-18T11:40:24.692Z,74.45
2019-03-18T11:42:54.175Z,73.16
2019-03-18T11:45:23.616Z,74.51
2019-03-18T11:47:53.033Z,72.50
2019-03-18T11:50:22.713Z,72.79
2019-03-18T11:53:33.129Z,71.94
2019-03-18T11:56:03.476Z,70.29
2019-03-18T11:58:36.182Z,68.53
2019-03-18T12:01:05.720Z,69.72
2019-03-18T12:03:35.225Z,68.23
2019-03-18T12:06:05.309Z,65.35
2019-03-18T12:08:37.885Z,65.32
2019-03-18T12:11:07.384Z,65.72
2019-03-18T12:13:36.885Z,65.31
2019-03-18T12:16:06.363Z,65.44
2019-03-18T12:18:37.317Z,65.17
2019-03-18T12:21:06.895Z,63.94
2019-03-18T12:23:36.358Z,64.29
2019-03-18T12:26:06.865Z,62.57
2019-03-18T12:28:36.286Z,61.95
2019-03-18T12:31:05.992Z,63.73
2019-03-18T12:33:35.834Z,61.78
2019-03-18T12:36:05.413Z,60.09
2019-03-18T12:38:34.814Z,60.08
2019-03-18T12:41:04.430Z,59.44
2019-03-18T12:43:33.907Z,59.84
2019-03-18T12:46:03.419Z,60.72
2019-03-18T12:48:33.059Z,59.72
2019-03-18T12:51:02.561Z,60.75
2019-03-18T12:53:32.042Z,59.90
2019-03-18T12:56:01.817Z,59.11
2019-03-18T12:58:31.256Z,59.35
2019-03-18T13:01:12.076Z,59.36
2019-03-18T13:03:31.870Z,58.23
2019-03-18T13:06:01.304Z,57.97
2019-03-18T13:08:30.794Z,57.44
2019-03-18T13:11:00.301Z,58.78
2019-03-18T13:13:29.736Z,60.27
2019-03-18T13:15:59.154Z,62.64
2019-03-18T13:18:28.724Z,67.51
2019-03-18T13:21:07.394Z,67.81
2019-03-18T13:23:29.270Z,71.13
2019-03-18T13:25:58.701Z,70.53
2019-03-18T13:28:30.518Z,70.27
2019-03-18T13:31:00.007Z,70.48
2019-03-18T13:33:29.447Z,70.41
2019-03-18T13:35:58.859Z,69.82
2019-03-18T13:38:28.294Z,70.60
2019-03-18T13:40:57.707Z,70.07
2019-03-18T13:43:28.133Z,70.38
2019-03-18T13:45:58.688Z,68.14
2019-03-18T13:48:28.243Z,68.91
2019-03-18T13:50:57.668Z,67.65
2019-03-18T13:53:27.173Z,68.52
2019-03-18T13:55:56.665Z,68.51
2019-03-18T13:58:26.158Z,69.12
2019-03-18T14:00:55.600Z,69.81
2019-03-18T14:03:25.017Z,67.30
2019-03-18T14:05:54.442Z,67.64
2019-03-18T14:08:24.919Z,65.66
2019-03-18T14:10:54.436Z,64.22
2019-03-18T14:13:23.998Z,63.52
2019-03-18T14:15:53.442Z,63.12
2019-03-18T14:18:22.847Z,63.56
2019-03-18T14:20:52.298Z,63.79
2019-03-18T14:23:21.711Z,63.91
2019-03-18T14:25:54.213Z,63.28
2019-03-18T14:28:23.629Z,62.99
2019-03-18T14:30:53.155Z,61.87
2019-03-18T14:33:22.576Z,62.22
2019-03-18T14:35:52.094Z,60.74
2019-03-18T14:38:21.499Z,59.87
2019-03-18T14:40:50.941Z,58.59
2019-03-18T14:43:20.373Z,58.23
2019-03-18T14:45:49.812Z,57.80
2019-03-18T14:48:19.228Z,57.48
2019-03-18T14:50:51.405Z,57.13
2019-03-18T14:53:20.897Z,60.54
2019-03-18T14:55:50.392Z,67.67
2019-03-18T14:58:19.828Z,73.77
2019-03-18T15:00:49.391Z,76.88
2019-03-18T15:03:18.816Z,78.16
2019-03-18T15:05:48.742Z,78.94
2019-03-18T15:08:19.196Z,77.65
2019-03-18T15:10:48.698Z,76.78
2019-03-18T15:13:30.012Z,74.94
2019-03-18T15:15:49.509Z,76.50
2019-03-18T15:18:18.956Z,74.14
2019-03-18T15:20:48.450Z,74.46
2019-03-18T15:23:19.416Z,74.34
2019-03-18T15:25:48.897Z,75.24
2019-03-18T15:28:18.321Z,75.96
2019-03-18T15:30:47.800Z,75.24
2019-03-18T15:33:17.294Z,75.79
2019-03-18T15:35:47.679Z,74.89
2019-03-18T15:38:17.193Z,73.21
2019-03-18T15:40:48.248Z,73.60
2019-03-18T15:43:18.285Z,73.76
2019-03-18T15:45:47.689Z,72.70
2019-03-18T15:48:17.191Z,72.51
2019-03-18T15:50:47.122Z,71.35
2019-03-18T15:53:16.575Z,70.78
2019-03-18T15:55:45.993Z,70.77
2019-03-18T15:58:17.061Z,69.67
2019-03-18T16:00:46.475Z,69.50
2019-03-18T16:03:15.883Z,69.80
2019-03-18T16:05:46.199Z,69.85
2019-03-18T16:08:15.613Z,70.49
2019-03-18T16:10:45.119Z,70.18
2019-03-18T16:13:14.632Z,69.99
2019-03-18T16:15:45.583Z,69.22
2019-03-18T16:18:15.017Z,70.31
2019-03-18T16:20:44.437Z,70.30
2019-03-18T16:23:16.065Z,69.55
2019-03-18T16:25:45.511Z,68.89
2019-03-18T16:28:14.919Z,72.58
2019-03-18T16:30:44.959Z,69.28
2019-03-18T16:33:14.443Z,69.81
2019-03-18T16:35:43.885Z,70.81
2019-03-18T16:38:13.349Z,72.13
2019-03-18T16:40:42.821Z,71.54
2019-03-18T16:43:12.305Z,70.65
2019-03-18T16:45:41.735Z,71.71
2019-03-18T16:48:12.420Z,71.18
2019-03-18T16:50:41.907Z,72.28
2019-03-18T16:53:11.319Z,72.00
2019-03-18T16:55:40.856Z,72.81
2019-03-18T16:58:10.279Z,72.44
2019-03-18T17:00:39.798Z,72.86
2019-03-18T17:03:09.197Z,71.82
2019-03-18T17:05:38.647Z,72.52
2019-03-18T17:08:08.244Z,72.94
2019-03-18T17:10:37.669Z,72.83
2019-03-18T17:13:07.180Z,72.71
2019-03-18T17:15:36.651Z,73.02
2019-03-18T17:18:06.244Z,72.98
2019-03-18T17:20:35.658Z,73.33
2019-03-18T17:23:05.256Z,73.60
2019-03-18T17:25:35.273Z,73.69
2019-03-18T17:28:05.515Z,73.20
2019-03-18T17:30:35.066Z,74.41
2019-03-18T17:33:04.648Z,74.30
2019-03-18T17:35:34.129Z,74.06
2019-03-18T17:38:03.623Z,74.37
2019-03-18T17:40:34.558Z,74.76
2019-03-18T17:43:05.710Z,74.76
2019-03-18T17:45:37.346Z,75.10
2019-03-18T17:48:07.236Z,75.66
2019-03-18T17:50:36.728Z,75.95
2019-03-18T17:53:06.394Z,75.77
2019-03-18T17:55:35.794Z,75.97
2019-03-18T17:58:05.502Z,75.95
2019-03-18T18:00:39.734Z,76.02
2019-03-18T18:03:09.182Z,76.08
2019-03-18T18:05:39.239Z,75.95
2019-03-18T18:08:08.687Z,75.85
2019-03-18T18:10:41.022Z,74.81
2019-03-18T18:13:10.459Z,74.58
2019-03-18T18:15:40.269Z,74.25
2019-03-18T18:18:11.498Z,74.25
2019-03-18T18:20:42.681Z,74.48
2019-03-18T18:23:14.656Z,74.51
2019-03-18T18:25:44.358Z,74.35
2019-03-18T18:28:13.765Z,74.77
2019-03-18T18:30:43.217Z,74.60
2019-03-18T18:33:13.084Z,74.94
2019-03-18T18:35:42.533Z,75.25
2019-03-18T18:38:15.038Z,75.18
2019-03-18T18:40:44.545Z,75.55
2019-03-18T18:43:14.116Z,75.51
2019-03-18T18:45:43.524Z,75.58
2019-03-18T18:48:17.282Z,75.41
2019-03-18T18:50:46.753Z,74.94
2019-03-18T18:53:26.229Z,74.82
2019-03-18T18:55:51.751Z,74.95
2019-03-18T18:58:21.194Z,75.10
2019-03-18T19:00:50.680Z,74.87
2019-03-18T19:03:20.199Z,74.69
2019-03-18T19:05:49.624Z,74.89
2019-03-18T19:08:19.201Z,74.18
2019-03-18T19:10:49.414Z,74.27
2019-03-18T19:13:18.847Z,74.26
2019-03-18T19:15:48.260Z,74.20
2019-03-18T19:18:17.769Z,73.77
2019-03-18T19:20:48.687Z,73.87
2019-03-18T19:23:18.128Z,73.51
2019-03-18T19:25:47.675Z,72.77
2019-03-18T19:28:17.163Z,73.11
2019-03-18T19:30:46.599Z,73.03
2019-03-18T19:33:16.087Z,72.89
2019-03-18T19:35:45.987Z,72.70
2019-03-18T19:38:15.530Z,72.33
2019-03-18T19:40:44.961Z,72.30
2019-03-18T19:43:14.439Z,72.50
2019-03-18T19:45:45.693Z,72.45
2019-03-18T19:48:15.123Z,72.67
2019-03-18T19:50:46.185Z,73.09
2019-03-18T19:53:15.889Z,73.07
2019-03-18T19:55:48.223Z,73.08
2019-03-18T19:58:17.671Z,73.31
2019-03-18T20:00:47.081Z,73.20
2019-03-18T20:03:16.526Z,73.43
2019-03-18T20:05:45.985Z,73.42
2019-03-18T20:08:15.517Z,73.15
2019-03-18T20:10:47.475Z,72.80
2019-03-18T20:13:16.898Z,72.84
2019-03-18T20:15:46.414Z,72.39
2019-03-18T20:18:15.838Z,72.95
2019-03-18T20:20:45.346Z,73.11
2019-03-18T20:23:15.414Z,73.03
2019-03-18T20:25:47.248Z,72.72
2019-03-18T20:28:16.657Z,72.90
2019-03-18T20:30:46.100Z,73.16
2019-03-18T20:33:15.512Z,73.41
2019-03-18T20:35:44.966Z,73.43
2019-03-18T20:38:16.252Z,73.28
2019-03-18T20:40:46.273Z,73.26
2019-03-18T20:43:16.215Z,73.41
2019-03-18T20:45:48.656Z,73.62
2019-03-18T20:48:18.244Z,73.78
2019-03-18T20:50:47.946Z,73.68
2019-03-18T20:53:17.428Z,73.69
2019-03-18T20:55:47.334Z,73.84
2019-03-18T20:58:16.859Z,73.72
2019-03-18T21:00:46.337Z,73.73
2019-03-18T21:03:15.997Z,73.95
2019-03-18T21:05:45.476Z,74.11
2019-03-18T21:08:16.711Z,74.56
2019-03-18T21:10:49.117Z,74.59
2019-03-18T21:13:18.634Z,74.46
2019-03-18T21:15:48.109Z,74.50
2019-03-18T21:18:17.625Z,74.73
2019-03-18T21:20:47.024Z,74.99
2019-03-18T21:23:16.621Z,75.35
2019-03-18T21:25:46.031Z,75.65
2019-03-18T21:28:15.604Z,75.79
2019-03-18T21:30:45.156Z,75.93
2019-03-18T21:33:14.588Z,76.20
2019-03-18T21:35:44.526Z,76.30
2019-03-18T21:38:13.970Z,76.48
2019-03-18T21:40:43.451Z,76.61
2019-03-18T21:43:14.507Z,76.89
2019-03-18T21:45:44.029Z,76.91
2019-03-18T21:48:13.443Z,77.06
2019-03-18T21:50:42.886Z,77.07
2019-03-18T21:53:12.894Z,77.15
2019-03-18T21:55:45.389Z,77.55
2019-03-18T21:58:14.899Z,77.88
2019-03-18T22:00:44.402Z,78.06
2019-03-18T22:03:16.704Z,78.14
2019-03-18T22:05:46.147Z,78.47
2019-03-18T22:08:15.553Z,78.72
2019-03-18T22:10:44.989Z,78.79
2019-03-18T22:13:16.025Z,78.97
2019-03-18T22:15:45.459Z,79.00
2019-03-18T22:18:14.871Z,79.20
2019-03-18T22:20:44.381Z,78.95
2019-03-18T22:23:18.725Z,79.27
2019-03-18T22:25:48.094Z,79.47
2019-03-18T22:28:17.538Z,79.56
2019-03-18T22:30:46.948Z,79.76
2019-03-18T22:33:16.379Z,80.03
2019-03-18T22:35:45.859Z,80.22
2019-03-18T22:38:18.271Z,80.39
2019-03-18T22:40:48.175Z,80.35
2019-03-18T22:43:20.529Z,80.28
2019-03-18T22:45:53.268Z,80.26
2019-03-18T22:48:22.695Z,80.58
2019-03-18T22:50:53.179Z,80.53
2019-03-18T22:53:23.180Z,80.60
2019-03-18T22:55:52.614Z,80.56
2019-03-18T22:58:22.192Z,80.67
2019-03-18T23:00:53.902Z,80.73
2019-03-18T23:03:25.000Z,80.65
2019-03-18T23:05:54.799Z,80.95
2019-03-18T23:08:24.277Z,81.06
2019-03-18T23:10:54.271Z,81.14
2019-03-18T23:13:26.778Z,81.22
2019-03-18T23:15:57.444Z,80.94
2019-03-18T23:18:26.831Z,81.14
2019-03-18T23:20:56.265Z,81.13
2019-03-18T23:23:26.057Z,81.10
2019-03-18T23:25:55.840Z,80.98
2019-03-18T23:28:25.234Z,81.01
2019-03-18T23:30:56.744Z,80.91
2019-03-18T23:33:26.225Z,81.12
2019-03-18T23:35:55.725Z,81.26
2019-03-18T23:38:27.892Z,81.17
2019-03-18T23:40:58.060Z,81.11
2019-03-18T23:43:28.361Z,80.96
2019-03-18T23:45:57.845Z,81.11
2019-03-18T23:48:27.649Z,81.10
2019-03-18T23:51:01.664Z,80.95
2019-03-18T23:53:34.029Z,80.89
2019-03-18T23:56:03.426Z,80.94
2019-03-18T23:58:33.429Z,81.23
